Aérodrome :
LOGIN :

S'inscrire | Disclaimer

   EN    FR    IT 

 










Légende :    VFR   VFR Marginal   IFR   IFR Intensif   IFR Très Intensif
Visi : 
Plafond : 
>= 8 km
>= 3000ft
5 à 8 km
1000 à 3000 ft
1500m à 5 km
500 à 1000 ft
800 à 1500m
200 à 500 ft
< 800m
< 200 ft
Symboles :   Orages  Brouillard  Fortes neiges  Fortes précipitations  Vent > 20 kt
SIGMETs :   Divers  Orages  Givrage  Turbulence  Onde Orograph.  Cendres Volcan.






- Altitude de l'aérodrome : 52 ft
- Code IATA : RNN


EKRN - Bornholm Ronne

DERNIER METAR :
  • 310950Z AUTO 14008KT 9999 OVC004/// 11/11 Q1021

METARs EXPIRÉS :
  • 310920Z AUTO 15010KT 9999 OVC006/// 11/11 Q1021
  • 310850Z AUTO 15010KT 9999 OVC007/// 11/11 Q1021
  • 310820Z AUTO 15010KT 9999 OVC007/// 11/11 Q1021
  • 310750Z AUTO 15010KT 9999 OVC008/// 11/11 Q1021
  • 310720Z AUTO 14011KT 9999 SCT008/// BKN026/// BKN083/// 11/11 Q1021

TAF TAF EKRN
Valide du 31 à 09h jusqu'au 31 à 18h UTC


310823Z 3109/3118 15012KT 9999 OVC006
BECMG 3110/3112 2500 BR BKN004
BECMG 3113/3115 0400 -RADZ FG VV001
TEMPO 3115/3118 3000 BR BKN004



MET'MAP, la Météo Aéronautique d'un coup d'oeil ! - Copyright ORBIFLY Décembre 2007 - Disclaimer

ORBIFLY MET'MAP TEAM :

Programmation & Développement : Alexandra Zaïnal
Sur une idée originale de : Baudouin d'Aumeries
Assistance à la programmation : Marc-Olivier Méhu
Soutien technique & logistique : Manuel Goepfert

Contact : metmap@orbifly.com




SOURCES & CREDITS :

   NOAA